aviador You're here:

OPPS Decoded Metar

PESHAWAR in PAKISTAN
Report Time2017-08-24 06:30:00
UTC Time2017-08-24 07:00:17
Flight Rules ifr IFR
Wind050° at 08 kt
W.Decomp.*RWY 35: 4.2 kt HW 6.8 kt RCW
W.Rank050° ranks 1
Current wind is above 050° avg. (7.4)
Visibility4000 m
Phenomena:Haze
Clouds:Few 030 Hf
Scattered 100 Hf
Expected CloudBase > 2,800 ft AGL from Temp-Dew spread
CeilingNone
Temp30°C (ISA +17)
Dew Point23°C (66% RH)
Heat Index34.1°C
QNH1006 hPa
Density Alt3,776 ft
Elevation1,181 ft
Report Wrong Elevation
Raw Report
METAR OPPS 240630Z 05008KT 4000 HZ FEW030 SCT100 30/23 Q1006=

Extra information for OPPS:More info

Metar Taf Metar & Taf Last 4 Metars F.Rules Stats Wind Profile Meteogram Temp Stats Airport Information Weather charts Add Link Nearby VenuesMetar ALERT Operation Metar Decoded Social comments